createdAt,value
2023-06-20T00:02:18.200Z,26.73
2023-06-20T00:04:48.896Z,26.03
2023-06-20T00:07:18.768Z,26.19
2023-06-20T00:09:52.919Z,26.83
2023-06-20T00:12:23.893Z,27.16
2023-06-20T00:14:54.428Z,27.02
2023-06-20T00:17:26.053Z,26.80
2023-06-20T00:19:55.525Z,27.26
2023-06-20T00:22:25.770Z,27.21
2023-06-20T00:24:57.128Z,26.56
2023-06-20T00:27:27.919Z,26.69
2023-06-20T00:29:58.878Z,27.12
2023-06-20T00:32:29.683Z,27.09
2023-06-20T00:34:59.777Z,27.28
2023-06-20T00:37:32.031Z,27.40
2023-06-20T00:40:05.303Z,27.03
2023-06-20T00:42:33.011Z,26.61
2023-06-20T00:45:26.446Z,26.94
2023-06-20T00:47:53.381Z,27.03
2023-06-20T00:50:19.678Z,27.29
2023-06-20T00:52:58.749Z,27.43
2023-06-20T00:55:27.240Z,27.47
2023-06-20T00:57:55.795Z,26.85
2023-06-20T01:00:22.697Z,27.24
2023-06-20T01:03:02.168Z,27.55
2023-06-20T01:05:29.679Z,26.94
2023-06-20T01:08:14.265Z,27.55
2023-06-20T01:11:13.665Z,27.43
2023-06-20T01:14:27.825Z,27.57
2023-06-20T01:17:08.813Z,27.61
2023-06-20T01:19:49.283Z,27.66
2023-06-20T01:22:38.990Z,27.39
2023-06-20T01:25:16.355Z,26.45
2023-06-20T01:27:57.625Z,27.38
2023-06-20T01:30:31.005Z,27.41
2023-06-20T01:33:03.053Z,27.33
2023-06-20T01:35:30.641Z,27.44
2023-06-20T01:38:08.625Z,27.34
2023-06-20T01:40:35.876Z,27.45
2023-06-20T01:43:02.653Z,27.30
2023-06-20T01:45:36.133Z,26.01
2023-06-20T01:48:04.508Z,27.47
2023-06-20T01:50:36.219Z,27.35
2023-06-20T01:53:08.226Z,27.20
2023-06-20T01:55:41.585Z,27.31
2023-06-20T01:58:10.714Z,27.25
2023-06-20T02:00:41.367Z,26.21
2023-06-20T02:03:19.616Z,26.72
2023-06-20T02:05:48.455Z,27.10
2023-06-20T02:08:18.657Z,27.07
2023-06-20T02:10:49.370Z,27.04
2023-06-20T02:13:22.303Z,26.73
2023-06-20T02:15:54.318Z,26.52
2023-06-20T02:18:22.175Z,26.94
2023-06-20T02:20:54.831Z,27.02
2023-06-20T02:23:29.932Z,25.40
2023-06-20T02:26:08.080Z,26.68
2023-06-20T02:28:42.995Z,27.20
2023-06-20T02:31:12.077Z,26.76
2023-06-20T02:33:39.001Z,26.56
2023-06-20T02:36:05.724Z,26.70
2023-06-20T02:38:34.019Z,26.41
2023-06-20T02:41:05.700Z,26.06
2023-06-20T02:43:37.217Z,26.31
2023-06-20T02:46:54.499Z,25.90
2023-06-20T02:49:40.390Z,26.43
2023-06-20T02:52:36.922Z,26.26
2023-06-20T02:55:21.273Z,25.94
2023-06-20T02:57:56.445Z,25.91
2023-06-20T03:00:30.813Z,26.65
2023-06-20T03:03:37.663Z,26.76
2023-06-20T03:06:10.249Z,25.50
2023-06-20T03:08:43.440Z,24.10
2023-06-20T03:11:12.325Z,26.37
2023-06-20T03:13:42.775Z,26.41
2023-06-20T03:16:13.318Z,25.67
2023-06-20T03:18:43.633Z,26.30
2023-06-20T03:21:27.959Z,26.41
2023-06-20T03:23:55.331Z,26.67
2023-06-20T03:26:21.810Z,26.63
2023-06-20T03:28:49.253Z,26.88
2023-06-20T03:31:20.254Z,26.40
2023-06-20T03:33:50.861Z,26.62
2023-06-20T03:36:21.882Z,26.28
2023-06-20T03:38:55.792Z,26.74
2023-06-20T03:41:26.134Z,26.50
2023-06-20T03:43:56.455Z,26.63
2023-06-20T03:46:27.037Z,26.22
2023-06-20T03:48:57.258Z,24.67
2023-06-20T03:51:27.706Z,25.85
2023-06-20T03:53:58.127Z,26.06
2023-06-20T03:56:30.562Z,26.23
2023-06-20T03:59:00.742Z,26.18
2023-06-20T04:01:31.779Z,26.02
2023-06-20T04:04:05.807Z,24.80
2023-06-20T04:06:34.663Z,23.95
2023-06-20T04:09:05.597Z,24.77
2023-06-20T04:11:36.035Z,25.65
2023-06-20T04:14:10.984Z,25.76
2023-06-20T04:16:41.333Z,25.10
2023-06-20T04:19:12.220Z,25.95
2023-06-20T04:21:46.147Z,25.95
2023-06-20T04:24:17.502Z,25.48
2023-06-20T04:26:47.826Z,25.62
2023-06-20T04:29:18.858Z,25.15
2023-06-20T04:31:52.673Z,25.92
2023-06-20T04:34:23.576Z,25.25
2023-06-20T04:36:54.742Z,26.00
2023-06-20T04:39:29.737Z,25.00
2023-06-20T04:41:59.191Z,26.13
2023-06-20T04:44:29.667Z,26.04
2023-06-20T04:47:03.785Z,25.85
2023-06-20T04:49:34.334Z,24.97
2023-06-20T04:52:06.374Z,26.08
2023-06-20T04:54:35.663Z,26.02
2023-06-20T04:57:06.402Z,25.99
2023-06-20T04:59:36.826Z,25.85
2023-06-20T05:02:07.840Z,26.09
2023-06-20T05:04:42.822Z,25.89
2023-06-20T05:07:13.710Z,25.85
2023-06-20T05:09:43.999Z,25.30
2023-06-20T05:12:18.328Z,26.13
2023-06-20T05:14:50.085Z,25.93
2023-06-20T05:17:21.371Z,25.88
2023-06-20T05:19:52.387Z,25.71
2023-06-20T05:22:23.099Z,25.98
2023-06-20T05:24:53.762Z,26.10
2023-06-20T05:27:24.712Z,25.90
2023-06-20T05:29:59.825Z,26.01
2023-06-20T05:32:30.225Z,22.41
2023-06-20T05:35:00.736Z,26.05
2023-06-20T05:37:35.015Z,25.82
2023-06-20T05:40:07.196Z,25.92
2023-06-20T05:42:36.917Z,25.22
2023-06-20T05:45:08.409Z,25.87
2023-06-20T05:47:39.161Z,24.85
2023-06-20T05:50:10.162Z,25.93
2023-06-20T05:52:40.768Z,25.73
2023-06-20T05:55:16.041Z,25.79
2023-06-20T05:57:46.547Z,25.76
2023-06-20T06:00:17.947Z,25.87
2023-06-20T06:02:47.526Z,25.87
2023-06-20T06:05:17.730Z,25.82
2023-06-20T06:07:48.488Z,26.11
2023-06-20T06:10:19.198Z,25.53
2023-06-20T06:12:51.317Z,26.10
2023-06-20T06:15:21.890Z,26.10
2023-06-20T06:17:52.699Z,26.09
2023-06-20T06:20:29.414Z,26.07
2023-06-20T06:22:57.865Z,25.77
2023-06-20T06:25:28.861Z,25.72
2023-06-20T06:27:59.545Z,26.13
2023-06-20T06:30:33.425Z,25.70
2023-06-20T06:33:01.726Z,25.54
2023-06-20T06:35:34.280Z,24.79
2023-06-20T06:38:07.106Z,25.58
2023-06-20T06:40:39.109Z,25.29
2023-06-20T06:43:10.377Z,25.62
2023-06-20T06:45:45.590Z,25.74
2023-06-20T06:48:16.140Z,25.78
2023-06-20T06:50:46.945Z,25.64
2023-06-20T06:53:18.499Z,25.89
2023-06-20T06:55:48.257Z,25.66
2023-06-20T06:58:19.068Z,25.27
2023-06-20T07:00:50.692Z,25.28
2023-06-20T07:03:25.017Z,25.19
2023-06-20T07:05:57.083Z,25.40
2023-06-20T07:08:27.524Z,25.64
2023-06-20T07:11:04.123Z,25.79
2023-06-20T07:13:34.664Z,25.76
2023-06-20T07:16:05.467Z,26.12
2023-06-20T07:18:35.941Z,26.19
2023-06-20T07:21:06.891Z,25.72
2023-06-20T07:23:37.405Z,25.74
2023-06-20T07:26:08.566Z,25.59
2023-06-20T07:28:42.250Z,25.61
2023-06-20T07:31:17.629Z,25.57
2023-06-20T07:33:44.358Z,26.08
2023-06-20T07:36:17.666Z,26.07
2023-06-20T07:38:48.180Z,26.64
2023-06-20T07:41:19.172Z,26.88
2023-06-20T07:43:50.206Z,26.85
2023-06-20T07:46:21.125Z,26.07
2023-06-20T07:48:48.713Z,26.38
2023-06-20T07:51:14.863Z,26.62
2023-06-20T07:53:41.048Z,26.67
2023-06-20T07:56:07.583Z,26.58
2023-06-20T07:58:33.749Z,26.93
2023-06-20T08:01:00.680Z,25.95
2023-06-20T08:03:27.132Z,26.56
2023-06-20T08:05:53.356Z,27.03
2023-06-20T08:08:19.517Z,25.97
2023-06-20T08:10:45.655Z,26.79
2023-06-20T08:13:11.882Z,28.17
2023-06-20T08:15:38.094Z,28.05
2023-06-20T08:18:04.376Z,27.92
2023-06-20T08:20:31.102Z,27.61
2023-06-20T08:22:57.247Z,27.76
2023-06-20T08:25:23.664Z,27.13
2023-06-20T08:27:56.271Z,27.62
2023-06-20T08:30:32.343Z,27.38
2023-06-20T08:32:58.583Z,27.53
2023-06-20T08:35:24.779Z,27.67
2023-06-20T08:37:50.941Z,26.36
2023-06-20T08:40:17.198Z,26.88
2023-06-20T08:42:43.797Z,27.41
2023-06-20T08:45:10.735Z,27.78
2023-06-20T08:47:36.937Z,27.65
2023-06-20T08:50:03.284Z,27.74
2023-06-20T08:52:30.532Z,27.87
2023-06-20T08:54:57.376Z,27.83
2023-06-20T08:57:24.228Z,28.22
2023-06-20T08:59:50.625Z,28.35
2023-06-20T09:02:16.953Z,28.80
2023-06-20T09:04:43.125Z,27.73
2023-06-20T09:07:19.425Z,27.88
2023-06-20T09:09:45.815Z,27.88
2023-06-20T09:12:11.963Z,27.54
2023-06-20T09:14:38.157Z,27.74
2023-06-20T09:17:04.976Z,27.43
2023-06-20T09:19:43.089Z,26.77
2023-06-20T09:22:13.115Z,27.05
2023-06-20T09:24:45.245Z,27.49
2023-06-20T09:27:11.902Z,27.84
2023-06-20T09:29:51.612Z,27.76
2023-06-20T09:32:21.561Z,28.18
2023-06-20T09:34:48.006Z,27.58
2023-06-20T09:37:17.846Z,28.16
2023-06-20T09:39:44.314Z,28.28
2023-06-20T09:42:13.919Z,27.74
2023-06-20T09:44:40.988Z,26.93
2023-06-20T09:47:07.764Z,28.80
2023-06-20T09:49:39.932Z,27.96
2023-06-20T09:52:08.438Z,27.04
2023-06-20T09:54:45.005Z,28.43
2023-06-20T09:57:14.164Z,27.17
2023-06-20T09:59:42.377Z,28.89
2023-06-20T10:02:10.140Z,29.18
2023-06-20T10:04:43.150Z,29.51
2023-06-20T10:07:13.020Z,29.32
2023-06-20T10:09:40.713Z,29.62
2023-06-20T10:12:08.584Z,29.39
2023-06-20T10:14:34.829Z,29.37
2023-06-20T10:17:08.222Z,29.04
2023-06-20T10:19:50.973Z,28.40
2023-06-20T10:22:37.497Z,28.22
2023-06-20T10:25:15.040Z,26.97
2023-06-20T10:27:43.318Z,28.20
2023-06-20T10:30:13.378Z,27.98
2023-06-20T10:33:09.569Z,29.00
2023-06-20T10:35:35.861Z,29.00
2023-06-20T10:38:11.255Z,29.31
2023-06-20T10:40:37.914Z,29.21
2023-06-20T10:43:16.497Z,28.82
2023-06-20T10:46:02.697Z,28.75
2023-06-20T10:48:29.034Z,29.33
2023-06-20T10:51:01.354Z,29.59
2023-06-20T10:53:28.550Z,28.36
2023-06-20T10:55:54.760Z,29.16
2023-06-20T10:58:31.840Z,29.36
2023-06-20T11:00:59.545Z,29.44
2023-06-20T11:03:26.045Z,29.78
2023-06-20T11:05:54.547Z,30.06
2023-06-20T11:08:22.613Z,29.61
2023-06-20T11:10:48.919Z,29.56
2023-06-20T11:13:15.099Z,30.51
2023-06-20T11:15:41.283Z,29.73
2023-06-20T11:18:10.704Z,30.88
2023-06-20T11:20:41.913Z,29.31
2023-06-20T11:23:10.933Z,30.45
2023-06-20T11:25:38.751Z,30.58
2023-06-20T11:28:15.303Z,30.02
2023-06-20T11:30:43.580Z,28.82
2023-06-20T11:33:14.586Z,30.44
2023-06-20T11:35:52.833Z,30.84
2023-06-20T11:38:20.776Z,31.42
2023-06-20T11:40:51.245Z,31.62
2023-06-20T11:43:27.159Z,31.48
2023-06-20T11:46:00.307Z,31.29
2023-06-20T11:48:27.170Z,30.90
2023-06-20T11:50:58.296Z,30.71
2023-06-20T11:53:28.614Z,30.62
2023-06-20T11:55:58.257Z,31.23
2023-06-20T11:58:26.766Z,30.87
2023-06-20T12:01:04.803Z,31.44
2023-06-20T12:03:31.794Z,31.17
2023-06-20T12:05:58.310Z,30.03
2023-06-20T12:08:25.582Z,31.42
2023-06-20T12:11:00.334Z,31.73
2023-06-20T12:13:27.106Z,32.01
2023-06-20T12:15:53.402Z,31.36
2023-06-20T12:18:19.641Z,31.93
2023-06-20T12:20:59.008Z,30.74
2023-06-20T12:23:29.379Z,30.55
2023-06-20T12:26:01.027Z,30.65
2023-06-20T12:28:33.006Z,30.65
2023-06-20T12:30:59.937Z,31.01
2023-06-20T12:33:35.068Z,30.78
2023-06-20T12:36:07.694Z,30.77
2023-06-20T12:38:34.565Z,30.98
2023-06-20T12:41:01.364Z,31.21
2023-06-20T12:43:32.902Z,32.08
2023-06-20T12:46:01.635Z,31.26
2023-06-20T12:48:28.638Z,31.40
2023-06-20T12:50:54.822Z,31.62
2023-06-20T12:53:28.314Z,31.76
2023-06-20T12:55:58.264Z,32.45
2023-06-20T12:58:24.468Z,32.08
2023-06-20T13:00:51.875Z,32.64
2023-06-20T13:03:19.351Z,31.50
2023-06-20T13:05:50.492Z,31.55
2023-06-20T13:08:21.357Z,31.75
2023-06-20T13:10:54.062Z,32.38
2023-06-20T13:13:26.765Z,32.94
2023-06-20T13:15:56.655Z,31.91
2023-06-20T13:18:28.097Z,31.35
2023-06-20T13:20:58.791Z,32.54
2023-06-20T13:23:30.112Z,32.57
2023-06-20T13:26:00.850Z,32.15
2023-06-20T13:28:33.896Z,32.27
2023-06-20T13:31:03.996Z,29.05
2023-06-20T13:33:34.904Z,32.90
2023-06-20T13:36:08.785Z,32.59
2023-06-20T13:38:41.013Z,31.38
2023-06-20T13:41:11.319Z,32.79
2023-06-20T13:43:40.364Z,33.19
2023-06-20T13:46:11.775Z,32.63
2023-06-20T13:48:42.291Z,32.04
2023-06-20T13:51:12.636Z,31.91
2023-06-20T13:53:45.663Z,32.94
2023-06-20T13:56:15.896Z,32.80
2023-06-20T13:58:46.385Z,32.90
2023-06-20T14:01:16.739Z,32.41
2023-06-20T14:03:47.795Z,33.30
2023-06-20T14:06:18.697Z,33.28
2023-06-20T14:08:49.322Z,33.25
2023-06-20T14:11:26.378Z,33.58
2023-06-20T14:13:56.499Z,33.56
2023-06-20T14:16:26.844Z,33.59
2023-06-20T14:19:03.064Z,33.14
2023-06-20T14:21:33.658Z,33.32
2023-06-20T14:24:04.971Z,32.93
2023-06-20T14:26:39.839Z,33.10
2023-06-20T14:29:10.180Z,33.24
2023-06-20T14:31:39.442Z,32.70
2023-06-20T14:34:09.804Z,33.43
2023-06-20T14:36:41.077Z,32.89
2023-06-20T14:39:11.293Z,33.35
2023-06-20T14:41:41.534Z,32.49
2023-06-20T14:44:13.170Z,33.13
2023-06-20T14:46:44.053Z,33.05
2023-06-20T14:49:14.353Z,32.63
2023-06-20T14:51:46.840Z,32.74
2023-06-20T14:54:18.265Z,33.38
2023-06-20T14:56:50.224Z,33.06
2023-06-20T14:59:19.362Z,33.18
2023-06-20T15:01:52.886Z,32.24
2023-06-20T15:04:22.758Z,33.17
2023-06-20T15:06:53.120Z,33.04
2023-06-20T15:09:23.869Z,33.32
2023-06-20T15:11:54.299Z,32.31
2023-06-20T15:14:25.351Z,32.94
2023-06-20T15:16:55.256Z,31.78
2023-06-20T15:19:27.177Z,32.81
2023-06-20T15:21:58.176Z,32.13
2023-06-20T15:24:32.871Z,32.92
2023-06-20T15:27:00.345Z,32.49
2023-06-20T15:29:32.214Z,33.43
2023-06-20T15:32:02.770Z,33.08
2023-06-20T15:34:33.337Z,33.21
2023-06-20T15:37:05.539Z,33.40
2023-06-20T15:39:37.200Z,32.43
2023-06-20T15:42:07.490Z,33.00
2023-06-20T15:44:42.355Z,32.43
2023-06-20T15:47:10.977Z,32.44
2023-06-20T15:49:42.360Z,32.86
2023-06-20T15:52:13.881Z,33.27
2023-06-20T15:54:46.033Z,33.24
2023-06-20T15:57:16.932Z,32.30
2023-06-20T15:59:49.889Z,33.42
2023-06-20T16:02:19.417Z,33.34
2023-06-20T16:04:48.733Z,32.99
2023-06-20T16:07:20.409Z,32.98
2023-06-20T16:09:49.909Z,33.08
2023-06-20T16:12:21.524Z,32.35
2023-06-20T16:14:52.515Z,32.39
2023-06-20T16:17:23.742Z,32.19
2023-06-20T16:19:54.070Z,32.67
2023-06-20T16:22:25.525Z,32.81
2023-06-20T16:24:56.814Z,32.67
2023-06-20T16:27:26.430Z,32.76
2023-06-20T16:29:58.117Z,32.67
2023-06-20T16:32:29.592Z,30.82
2023-06-20T16:34:59.852Z,32.20
2023-06-20T16:37:30.090Z,32.21
2023-06-20T16:40:01.651Z,31.95
2023-06-20T16:42:32.624Z,31.89
2023-06-20T16:45:01.997Z,32.44
2023-06-20T16:47:32.247Z,31.98
2023-06-20T16:50:03.454Z,32.27
2023-06-20T16:52:33.185Z,31.75
2023-06-20T16:55:03.946Z,32.31
2023-06-20T16:57:37.742Z,31.81
2023-06-20T17:00:08.975Z,32.35
2023-06-20T17:02:38.461Z,32.35
2023-06-20T17:05:09.842Z,32.22
2023-06-20T17:07:40.290Z,31.90
2023-06-20T17:10:11.157Z,32.39
2023-06-20T17:12:41.274Z,31.62
2023-06-20T17:15:15.641Z,31.35
2023-06-20T17:17:44.957Z,31.91
2023-06-20T17:20:16.694Z,31.45
2023-06-20T17:22:46.289Z,31.63
2023-06-20T17:25:16.660Z,31.78
2023-06-20T17:27:46.718Z,31.36
2023-06-20T17:30:17.258Z,31.67
2023-06-20T17:32:53.802Z,31.88
2023-06-20T17:35:22.325Z,31.97
2023-06-20T17:37:52.789Z,31.54
2023-06-20T17:40:23.590Z,31.70
2023-06-20T17:42:54.371Z,31.45
2023-06-20T17:45:24.922Z,31.61
2023-06-20T17:47:55.584Z,31.71
2023-06-20T17:50:29.230Z,31.01
2023-06-20T17:52:59.344Z,31.99
2023-06-20T17:55:29.979Z,31.56
2023-06-20T17:58:02.012Z,31.81
2023-06-20T18:00:30.721Z,31.64
2023-06-20T18:03:01.420Z,31.52
2023-06-20T18:05:32.235Z,32.19
2023-06-20T18:08:06.589Z,32.10
2023-06-20T18:10:38.382Z,31.65
2023-06-20T18:13:07.722Z,31.15
2023-06-20T18:15:39.593Z,31.77
2023-06-20T18:18:08.985Z,31.99
2023-06-20T18:20:39.580Z,31.95
2023-06-20T18:23:11.343Z,32.00
2023-06-20T18:25:46.683Z,31.53
2023-06-20T18:28:16.896Z,31.64
2023-06-20T18:30:47.481Z,31.52
2023-06-20T18:33:17.758Z,31.29
2023-06-20T18:35:48.503Z,31.48
2023-06-20T18:38:18.986Z,31.39
2023-06-20T18:40:49.676Z,31.22
2023-06-20T18:43:24.778Z,30.27
2023-06-20T18:45:56.032Z,31.57
2023-06-20T18:48:26.569Z,31.24
2023-06-20T18:51:00.510Z,30.91
2023-06-20T18:53:31.781Z,30.74
2023-06-20T18:56:02.848Z,30.67
2023-06-20T18:58:32.522Z,30.76
2023-06-20T19:01:04.841Z,30.62
2023-06-20T19:03:35.127Z,30.65
2023-06-20T19:06:06.270Z,30.33
2023-06-20T19:08:38.640Z,29.68
2023-06-20T19:11:09.366Z,29.99
2023-06-20T19:13:40.537Z,30.30
2023-06-20T19:16:11.612Z,30.60
2023-06-20T19:18:41.259Z,30.32
2023-06-20T19:21:11.729Z,30.00
2023-06-20T19:23:42.008Z,29.99
2023-06-20T19:26:16.397Z,30.15
2023-06-20T19:28:47.551Z,30.23
2023-06-20T19:31:18.520Z,30.11
2023-06-20T19:33:48.783Z,30.35
2023-06-20T19:36:19.579Z,30.11
2023-06-20T19:38:51.666Z,29.92
2023-06-20T19:41:22.649Z,30.25
2023-06-20T19:43:57.630Z,30.08
2023-06-20T19:46:28.346Z,30.15
2023-06-20T19:49:01.506Z,29.58
2023-06-20T19:51:39.025Z,29.55
2023-06-20T19:54:07.211Z,29.38
2023-06-20T19:56:38.845Z,29.85
2023-06-20T19:59:13.447Z,29.64
2023-06-20T20:01:44.876Z,29.89
2023-06-20T20:04:15.176Z,29.87
2023-06-20T20:06:46.518Z,29.81
2023-06-20T20:09:17.835Z,29.15
2023-06-20T20:11:48.892Z,29.68
2023-06-20T20:14:19.340Z,29.81
2023-06-20T20:16:54.340Z,29.75
2023-06-20T20:19:27.365Z,29.52
2023-06-20T20:21:55.999Z,29.59
2023-06-20T20:24:27.356Z,29.86
2023-06-20T20:26:58.655Z,27.76
2023-06-20T20:29:29.219Z,28.05
2023-06-20T20:31:59.782Z,28.02
2023-06-20T20:34:34.642Z,27.96
2023-06-20T20:37:01.369Z,28.25
2023-06-20T20:39:33.092Z,27.87
2023-06-20T20:42:07.094Z,27.22
2023-06-20T20:44:37.658Z,27.53
2023-06-20T20:47:08.180Z,28.05
2023-06-20T20:49:38.451Z,28.05
2023-06-20T20:52:10.237Z,28.05
2023-06-20T20:54:41.224Z,28.01
2023-06-20T20:57:12.239Z,28.03
2023-06-20T20:59:46.306Z,27.99
2023-06-20T21:02:19.654Z,27.12
2023-06-20T21:04:47.633Z,27.98
2023-06-20T21:07:18.113Z,27.08
2023-06-20T21:09:51.492Z,27.90
2023-06-20T21:12:20.854Z,28.08
2023-06-20T21:14:50.646Z,27.28
2023-06-20T21:17:27.554Z,28.05
2023-06-20T21:19:56.355Z,27.92
2023-06-20T21:22:27.312Z,27.12
2023-06-20T21:24:57.292Z,27.85
2023-06-20T21:27:27.898Z,27.80
2023-06-20T21:29:58.196Z,27.04
2023-06-20T21:32:28.772Z,27.06
2023-06-20T21:35:03.365Z,26.07
2023-06-20T21:37:34.577Z,26.46
2023-06-20T21:40:07.149Z,26.72
2023-06-20T21:42:44.583Z,26.06
2023-06-20T21:45:14.070Z,26.79
2023-06-20T21:47:44.444Z,26.77
2023-06-20T21:50:20.028Z,27.44
2023-06-20T21:52:46.297Z,27.61
2023-06-20T21:55:15.732Z,26.66
2023-06-20T21:57:46.982Z,26.65
2023-06-20T22:00:20.305Z,27.07
2023-06-20T22:02:51.050Z,26.85
2023-06-20T22:05:22.008Z,27.58
2023-06-20T22:07:55.536Z,27.67
2023-06-20T22:10:26.980Z,26.83
2023-06-20T22:12:58.122Z,27.23
2023-06-20T22:15:27.993Z,26.40
2023-06-20T22:17:58.521Z,27.09
2023-06-20T22:20:29.490Z,26.87
2023-06-20T22:22:59.948Z,27.04
2023-06-20T22:25:36.061Z,27.53
2023-06-20T22:28:07.026Z,27.40
2023-06-20T22:30:37.669Z,26.75
2023-06-20T22:33:11.793Z,27.09
2023-06-20T22:35:42.770Z,27.37
2023-06-20T22:38:15.283Z,27.20
2023-06-20T22:40:44.373Z,27.32
2023-06-20T22:43:16.154Z,26.99
2023-06-20T22:45:47.752Z,26.99
2023-06-20T22:48:18.428Z,26.86
2023-06-20T22:50:55.121Z,26.78
2023-06-20T22:53:27.803Z,26.60
2023-06-20T22:55:56.279Z,26.94
2023-06-20T22:58:30.337Z,27.10
2023-06-20T23:01:01.358Z,26.85
2023-06-20T23:03:33.303Z,27.17
2023-06-20T23:06:16.581Z,26.83
2023-06-20T23:08:44.627Z,27.25
2023-06-20T23:11:15.171Z,27.28
2023-06-20T23:13:46.130Z,27.10
2023-06-20T23:16:17.042Z,26.58
2023-06-20T23:18:48.838Z,26.41
2023-06-20T23:21:20.170Z,26.19
2023-06-20T23:23:55.172Z,26.19
2023-06-20T23:26:25.708Z,26.62
2023-06-20T23:28:56.164Z,26.05
2023-06-20T23:31:32.272Z,25.84
2023-06-20T23:34:03.484Z,23.27
2023-06-20T23:36:32.124Z,26.46
2023-06-20T23:39:04.248Z,26.49
2023-06-20T23:41:33.956Z,26.25
2023-06-20T23:44:03.845Z,26.56
2023-06-20T23:46:35.085Z,25.81
2023-06-20T23:49:10.830Z,26.79
2023-06-20T23:51:41.701Z,25.72
2023-06-20T23:54:11.989Z,25.91
2023-06-20T23:56:45.566Z,26.35
2023-06-20T23:59:16.506Z,26.35
